< < Back
Terminal Aerodrome Forecast


Current Version              Previous Versions:   1  2  3  4  5  6  7  8  9  

Terminal Aerodrome Forecast

029
FTUS44 KBMX 011725
TAFANB
TAF
KANB 011725Z 0118/0218 06007KT P6SM SCT050=

Latest METAR

163
SAUS70 KWBC 011756
MTRANB
METAR KANB 011753Z AUTO 04008KT 10SM CLR 33/17 A2996 RMK AO2 SLP136
T03280172 10328 20189 58008


USA.gov is the U.S. government's official web portal to all federal, state and local government web resources and services.